createdAt,value
2022-09-15T00:00:12.448Z,98256.19
2022-09-15T00:02:39.086Z,98253.63
2022-09-15T00:05:05.966Z,98255.31
2022-09-15T00:07:32.519Z,98257.09
2022-09-15T00:09:59.163Z,98252.72
2022-09-15T00:12:26.794Z,98244.91
2022-09-15T00:14:53.579Z,98253.59
2022-09-15T00:17:20.219Z,98248.41
2022-09-15T00:19:46.864Z,98234.56
2022-09-15T00:22:15.725Z,98246.66
2022-09-15T00:24:42.425Z,98241.47
2022-09-15T00:27:08.967Z,98254.47
2022-09-15T00:29:36.424Z,98243.22
2022-09-15T00:32:02.963Z,98244.06
2022-09-15T00:34:29.767Z,98251.03
2022-09-15T00:36:56.514Z,98248.44
2022-09-15T00:39:23.116Z,98249.28
2022-09-15T00:41:49.675Z,98247.53
2022-09-15T00:44:16.123Z,98243.22
2022-09-15T00:46:54.695Z,98250.13
2022-09-15T00:49:35.126Z,98244.94
2022-09-15T00:52:09.186Z,98251.88
2022-09-15T00:54:47.613Z,98250.16
2022-09-15T00:57:19.895Z,98251.00
2022-09-15T00:59:47.418Z,98253.59
2022-09-15T01:02:18.775Z,98257.06
2022-09-15T01:04:45.465Z,98260.56
2022-09-15T01:07:14.966Z,98257.94
2022-09-15T01:09:50.651Z,98263.16
2022-09-15T01:12:17.181Z,98274.41
2022-09-15T01:14:43.681Z,98262.28
2022-09-15T01:17:41.090Z,98263.16
2022-09-15T01:20:35.951Z,98270.09
2022-09-15T01:23:15.907Z,98272.69
2022-09-15T01:26:05.835Z,98257.09
2022-09-15T01:28:49.610Z,98266.63
2022-09-15T01:31:18.167Z,98264.03
2022-09-15T01:33:57.837Z,98262.28
2022-09-15T01:36:44.799Z,98254.47
2022-09-15T01:39:20.448Z,98254.50
2022-09-15T01:41:50.489Z,98253.63
2022-09-15T01:44:32.213Z,98251.91
2022-09-15T01:47:03.339Z,98251.88
2022-09-15T01:49:39.094Z,98248.44
2022-09-15T01:52:05.749Z,98254.47
2022-09-15T01:54:41.269Z,98260.56
2022-09-15T01:57:07.829Z,98256.22
2022-09-15T01:59:34.449Z,98252.75
2022-09-15T02:02:09.245Z,98257.97
2022-09-15T02:04:41.144Z,98245.81
2022-09-15T02:07:21.130Z,98251.03
2022-09-15T02:09:51.925Z,98251.91
2022-09-15T02:12:33.167Z,98244.97
2022-09-15T02:15:05.700Z,98247.56
2022-09-15T02:17:35.462Z,98245.84
2022-09-15T02:20:10.086Z,98236.28
2022-09-15T02:22:39.813Z,98240.66
2022-09-15T02:25:14.234Z,98239.75
2022-09-15T02:27:47.306Z,98243.22
2022-09-15T02:30:18.256Z,98253.63
2022-09-15T02:32:55.317Z,98245.81
2022-09-15T02:35:23.444Z,98246.69
2022-09-15T02:37:50.342Z,98244.97
2022-09-15T02:40:17.248Z,98246.66
2022-09-15T02:42:55.936Z,98243.22
2022-09-15T02:45:24.756Z,98244.94
2022-09-15T02:47:51.404Z,98246.66
2022-09-15T02:50:20.454Z,98239.72
2022-09-15T02:52:47.149Z,98246.69
2022-09-15T02:55:13.836Z,98246.66
2022-09-15T02:57:40.319Z,98244.94
2022-09-15T03:00:14.936Z,98252.78
2022-09-15T03:02:43.141Z,98247.53
2022-09-15T03:05:10.287Z,98253.59
2022-09-15T03:07:40.124Z,98257.94
2022-09-15T03:10:08.040Z,98253.59
2022-09-15T03:12:48.060Z,98257.06
2022-09-15T03:15:17.577Z,98252.75
2022-09-15T03:17:46.296Z,98262.25
2022-09-15T03:20:17.098Z,98249.25
2022-09-15T03:22:43.945Z,98255.31
2022-09-15T03:25:11.277Z,98259.66
2022-09-15T03:27:38.200Z,98254.47
2022-09-15T03:30:06.549Z,98253.59
2022-09-15T03:32:33.163Z,98255.34
2022-09-15T03:34:59.853Z,98255.31
2022-09-15T03:37:26.696Z,98252.72
2022-09-15T03:39:53.268Z,98250.13
2022-09-15T03:42:20.490Z,98255.34
2022-09-15T03:44:47.218Z,98260.56
2022-09-15T03:47:16.405Z,98261.44
2022-09-15T03:49:42.974Z,98257.91
2022-09-15T03:52:09.943Z,98258.81
2022-09-15T03:54:36.473Z,98257.09
2022-09-15T03:57:03.361Z,98257.97
2022-09-15T03:59:29.917Z,98256.25
2022-09-15T04:01:56.420Z,98262.28
2022-09-15T04:04:22.984Z,98264.00
2022-09-15T04:06:49.533Z,98264.03
2022-09-15T04:09:16.170Z,98266.63
2022-09-15T04:11:42.890Z,98264.00
2022-09-15T04:14:09.412Z,98267.50
2022-09-15T04:16:36.161Z,98265.75
2022-09-15T04:19:02.727Z,98275.31
2022-09-15T04:21:31.669Z,98276.13
2022-09-15T04:23:58.194Z,98277.84
2022-09-15T04:26:28.907Z,98277.00
2022-09-15T04:28:55.545Z,98277.00
2022-09-15T04:31:22.201Z,98287.38
2022-09-15T04:33:51.561Z,98286.50
2022-09-15T04:36:21.218Z,98285.63
2022-09-15T04:38:48.516Z,98281.31
2022-09-15T04:41:15.352Z,98286.50
2022-09-15T04:43:43.374Z,98290.84
2022-09-15T04:46:10.981Z,98296.00
2022-09-15T04:48:38.019Z,98296.00
2022-09-15T04:51:06.802Z,98301.22
2022-09-15T04:53:33.375Z,98308.13
2022-09-15T04:56:07.993Z,98305.50
2022-09-15T04:58:39.234Z,98299.44
2022-09-15T05:01:17.362Z,98305.53
2022-09-15T05:03:44.311Z,98306.41
2022-09-15T05:06:13.061Z,98311.56
2022-09-15T05:08:42.275Z,98319.38
2022-09-15T05:11:11.109Z,98315.91
2022-09-15T05:13:38.526Z,98322.81
2022-09-15T05:16:16.015Z,98321.06
2022-09-15T05:18:43.957Z,98323.63
2022-09-15T05:21:12.057Z,98335.75
2022-09-15T05:23:39.857Z,98334.81
2022-09-15T05:26:17.329Z,98341.59
2022-09-15T05:28:43.872Z,98342.34
2022-09-15T05:31:19.867Z,98352.78
2022-09-15T05:33:47.943Z,98345.84
2022-09-15T05:36:15.257Z,98349.28
2022-09-15T05:38:41.861Z,98356.22
2022-09-15T05:41:10.965Z,98355.28
2022-09-15T05:43:38.571Z,98365.66
2022-09-15T05:46:06.705Z,98369.03
2022-09-15T05:48:34.310Z,98376.78
2022-09-15T05:51:00.867Z,98374.03
2022-09-15T05:53:27.341Z,98371.47
2022-09-15T05:56:05.413Z,98375.81
2022-09-15T05:58:32.528Z,98380.09
2022-09-15T06:01:16.228Z,98382.56
2022-09-15T06:03:43.033Z,98385.00
2022-09-15T06:06:09.624Z,98382.44
2022-09-15T06:08:37.717Z,98388.59
2022-09-15T06:11:11.809Z,98389.53
2022-09-15T06:13:40.216Z,98392.19
2022-09-15T06:16:12.762Z,98403.47
2022-09-15T06:18:40.013Z,98403.44
2022-09-15T06:21:13.579Z,98399.06
2022-09-15T06:23:40.712Z,98405.09
2022-09-15T06:26:14.306Z,98415.28
2022-09-15T06:28:44.632Z,98407.59
2022-09-15T06:31:16.865Z,98408.53
2022-09-15T06:33:45.883Z,98416.13
2022-09-15T06:36:16.142Z,98422.16
2022-09-15T06:38:43.800Z,98415.13
2022-09-15T06:41:11.440Z,98416.19
2022-09-15T06:43:38.238Z,98423.94
2022-09-15T06:46:07.869Z,98427.50
2022-09-15T06:48:35.172Z,98428.88
2022-09-15T06:51:01.946Z,98434.09
2022-09-15T06:53:32.650Z,98434.13
2022-09-15T06:56:04.082Z,98438.72
2022-09-15T06:58:31.702Z,98440.44
2022-09-15T07:01:26.299Z,98450.84
2022-09-15T07:03:53.196Z,98451.69
2022-09-15T07:06:19.985Z,98450.00
2022-09-15T07:08:46.896Z,98452.47
2022-09-15T07:11:14.201Z,98459.56
2022-09-15T07:13:43.629Z,98460.47
2022-09-15T07:16:12.582Z,98464.66
2022-09-15T07:18:43.066Z,98470.84
2022-09-15T07:21:18.465Z,98468.91
2022-09-15T07:23:45.013Z,98478.50
2022-09-15T07:26:17.267Z,98471.56
2022-09-15T07:28:46.182Z,98487.72
2022-09-15T07:31:15.698Z,98485.25
2022-09-15T07:33:42.571Z,98485.50
2022-09-15T07:36:10.164Z,98491.53
2022-09-15T07:38:41.534Z,98488.06
2022-09-15T07:41:10.690Z,98496.81
2022-09-15T07:43:37.331Z,98495.81
2022-09-15T07:46:04.282Z,98503.78
2022-09-15T07:48:31.938Z,98497.81
2022-09-15T07:50:59.980Z,98503.00
2022-09-15T07:53:30.305Z,98493.50
2022-09-15T07:55:59.896Z,98501.41
2022-09-15T07:58:26.820Z,98513.56
2022-09-15T08:00:53.341Z,98503.78
2022-09-15T08:03:20.169Z,98515.22
2022-09-15T08:05:46.672Z,98523.06
2022-09-15T08:08:13.603Z,98515.31
2022-09-15T08:10:41.340Z,98519.53
2022-09-15T08:13:08.497Z,98518.78
2022-09-15T08:15:38.828Z,98531.84
2022-09-15T08:18:06.306Z,98538.78
2022-09-15T08:20:33.170Z,98537.84
2022-09-15T08:22:59.743Z,98543.19
2022-09-15T08:25:26.533Z,98549.19
2022-09-15T08:27:54.189Z,98543.22
2022-09-15T08:30:21.342Z,98560.59
2022-09-15T08:32:48.206Z,98559.84
2022-09-15T08:35:16.003Z,98566.78
2022-09-15T08:37:42.728Z,98560.81
2022-09-15T08:40:31.261Z,98559.88
2022-09-15T08:43:00.186Z,98558.97
2022-09-15T08:45:33.489Z,98562.47
2022-09-15T08:48:01.634Z,98569.47
2022-09-15T08:50:32.814Z,98566.03
2022-09-15T08:53:19.013Z,98579.09
2022-09-15T08:56:10.004Z,98581.66
2022-09-15T08:58:37.803Z,98581.66
2022-09-15T09:01:06.338Z,98585.09
2022-09-15T09:03:48.636Z,98591.94
2022-09-15T09:06:44.920Z,98587.84
2022-09-15T09:09:37.778Z,98596.59
2022-09-15T09:12:19.472Z,98602.72
2022-09-15T09:15:01.479Z,98595.75
2022-09-15T09:17:46.798Z,98600.97
2022-09-15T09:20:36.584Z,98602.72
2022-09-15T09:23:05.001Z,98601.00
2022-09-15T09:25:31.651Z,98591.38
2022-09-15T09:27:58.627Z,98596.81
2022-09-15T09:30:27.824Z,98594.28
2022-09-15T09:32:57.249Z,98600.41
2022-09-15T09:35:34.657Z,98594.41
2022-09-15T09:38:02.496Z,98601.34
2022-09-15T09:40:31.656Z,98599.63
2022-09-15T09:42:58.386Z,98597.06
2022-09-15T09:45:24.883Z,98602.28
2022-09-15T09:47:52.080Z,98594.53
2022-09-15T09:50:39.742Z,98595.44
2022-09-15T09:53:20.451Z,98591.03
2022-09-15T09:55:47.047Z,98590.97
2022-09-15T09:58:18.707Z,98588.47
2022-09-15T10:00:45.873Z,98590.22
2022-09-15T10:03:23.292Z,98588.50
2022-09-15T10:06:05.894Z,98589.34
2022-09-15T10:08:32.947Z,98584.13
2022-09-15T10:11:06.757Z,98586.72
2022-09-15T10:13:37.683Z,98586.72
2022-09-15T10:16:06.020Z,98589.34
2022-09-15T10:18:38.233Z,98581.53
2022-09-15T10:21:06.273Z,98592.78
2022-09-15T10:23:34.179Z,98586.72
2022-09-15T10:26:20.598Z,98590.19
2022-09-15T10:29:10.771Z,98591.03
2022-09-15T10:31:37.613Z,98585.78
2022-09-15T10:34:24.094Z,98597.13
2022-09-15T10:36:53.152Z,98601.47
2022-09-15T10:39:32.111Z,98595.41
2022-09-15T10:42:42.848Z,98606.72
2022-09-15T10:45:12.583Z,98605.88
2022-09-15T10:47:57.786Z,98601.50
2022-09-15T10:51:09.263Z,98603.22
2022-09-15T10:54:02.795Z,98603.22
2022-09-15T10:56:37.014Z,98597.16
2022-09-15T10:59:28.248Z,98597.06
2022-09-15T11:02:19.631Z,98596.25
2022-09-15T11:04:58.500Z,98601.50
2022-09-15T11:07:27.840Z,98604.97
2022-09-15T11:10:06.386Z,98614.53
2022-09-15T11:12:59.133Z,98606.69
2022-09-15T11:15:49.857Z,98604.09
2022-09-15T11:18:32.665Z,98617.97
2022-09-15T11:21:11.177Z,98615.31
2022-09-15T11:23:58.047Z,98617.88
2022-09-15T11:26:34.793Z,98616.06
2022-09-15T11:29:46.366Z,98615.28
2022-09-15T11:32:22.148Z,98624.03
2022-09-15T11:35:22.915Z,98630.16
2022-09-15T11:37:51.067Z,98627.56
2022-09-15T11:40:22.254Z,98630.16
2022-09-15T11:43:16.835Z,98632.75
2022-09-15T11:45:47.719Z,98624.91
2022-09-15T11:48:28.574Z,98629.13
2022-09-15T11:50:57.999Z,98623.09
2022-09-15T11:53:32.965Z,98638.78
2022-09-15T11:56:14.587Z,98643.16
2022-09-15T11:58:41.024Z,98637.09
2022-09-15T12:01:10.561Z,98643.19
2022-09-15T12:04:02.246Z,98640.59
2022-09-15T12:06:48.391Z,98642.31
2022-09-15T12:09:17.743Z,98642.31
2022-09-15T12:11:48.682Z,98638.78
2022-09-15T12:14:41.911Z,98635.31
2022-09-15T12:17:32.049Z,98630.03
2022-09-15T12:20:12.684Z,98635.16
2022-09-15T12:22:54.374Z,98628.09
2022-09-15T12:26:05.029Z,98632.44
2022-09-15T12:28:52.151Z,98631.44
2022-09-15T12:31:32.584Z,98631.38
2022-09-15T12:34:00.588Z,98628.81
2022-09-15T12:36:45.933Z,98631.44
2022-09-15T12:39:25.802Z,98635.84
2022-09-15T12:41:56.515Z,98630.53
2022-09-15T12:44:43.080Z,98635.78
2022-09-15T12:47:21.967Z,98626.97
2022-09-15T12:49:50.171Z,98629.59
2022-09-15T12:52:17.915Z,98636.53
2022-09-15T12:54:45.448Z,98632.97
2022-09-15T12:57:26.752Z,98634.84
2022-09-15T13:00:22.611Z,98631.34
2022-09-15T13:02:50.404Z,98643.53
2022-09-15T13:05:42.880Z,98647.16
2022-09-15T13:08:15.355Z,98640.19
2022-09-15T13:10:43.915Z,98636.81
2022-09-15T13:13:15.200Z,98640.22
2022-09-15T13:15:44.514Z,98632.41
2022-09-15T13:18:12.825Z,98636.69
2022-09-15T13:20:43.428Z,98648.84
2022-09-15T13:23:13.668Z,98642.88
2022-09-15T13:25:43.347Z,98646.31
2022-09-15T13:28:11.666Z,98649.84
2022-09-15T13:31:02.093Z,98645.56
2022-09-15T13:40:36.489Z,98652.53
2022-09-15T13:43:31.195Z,98641.19
2022-09-15T13:46:18.846Z,98649.09
2022-09-15T13:48:57.436Z,98644.63
2022-09-15T13:51:27.030Z,98644.72
2022-09-15T13:53:59.656Z,98644.75
2022-09-15T13:56:28.513Z,98643.84
2022-09-15T13:59:16.332Z,98648.13
2022-09-15T14:01:46.017Z,98644.66
2022-09-15T14:04:16.751Z,98644.69
2022-09-15T14:07:00.230Z,98644.63
2022-09-15T14:09:39.469Z,98647.22
2022-09-15T14:12:11.348Z,98639.41
2022-09-15T14:14:41.659Z,98646.38
2022-09-15T14:17:22.580Z,98647.25
2022-09-15T14:19:51.056Z,98639.47
2022-09-15T14:22:17.775Z,98644.69
2022-09-15T14:24:44.330Z,98637.75
2022-09-15T14:27:14.044Z,98637.84
2022-09-15T14:29:45.731Z,98635.25
2022-09-15T14:32:15.244Z,98634.31
2022-09-15T14:34:42.367Z,98631.72
2022-09-15T14:37:11.953Z,98636.94
2022-09-15T14:39:41.679Z,98636.97
2022-09-15T14:42:19.024Z,98629.97
2022-09-15T14:47:34.565Z,98630.03
2022-09-15T14:50:20.676Z,98634.31
2022-09-15T14:52:49.635Z,98631.78
2022-09-15T14:55:22.900Z,98624.78
2022-09-15T14:57:54.914Z,98628.19
2022-09-15T15:00:23.502Z,98630.03
2022-09-15T15:03:35.113Z,98636.06
2022-09-15T15:09:03.845Z,98642.25
2022-09-15T15:11:31.507Z,98637.91
2022-09-15T15:13:59.085Z,98634.41
2022-09-15T15:16:28.975Z,98636.16
2022-09-15T15:18:57.135Z,98632.66
2022-09-15T15:21:43.652Z,98637.94
2022-09-15T15:24:12.975Z,98632.75
2022-09-15T15:26:41.581Z,98630.13
2022-09-15T15:29:29.191Z,98626.59
2022-09-15T15:32:05.053Z,98639.63
2022-09-15T15:34:31.697Z,98640.50
2022-09-15T15:37:11.489Z,98642.28
2022-09-15T15:39:38.024Z,98643.19
2022-09-15T15:42:06.146Z,98643.19
2022-09-15T15:44:32.810Z,98651.88
2022-09-15T15:47:02.092Z,98648.41
2022-09-15T15:49:31.786Z,98640.59
2022-09-15T15:52:00.289Z,98654.47
2022-09-15T15:54:27.328Z,98650.13
2022-09-15T15:56:54.310Z,98659.66
2022-09-15T15:59:23.958Z,98652.72
2022-09-15T16:01:53.151Z,98657.06
2022-09-15T16:04:19.754Z,98646.69
2022-09-15T16:06:46.435Z,98651.03
2022-09-15T16:09:14.838Z,98645.78
2022-09-15T16:11:42.923Z,98642.34
2022-09-15T16:14:16.338Z,98657.13
2022-09-15T16:16:43.028Z,98644.94
2022-09-15T16:19:09.689Z,98643.19
2022-09-15T16:21:41.200Z,98652.78
2022-09-15T16:24:13.670Z,98648.41
2022-09-15T16:26:40.589Z,98648.41
2022-09-15T16:29:07.403Z,98647.53
2022-09-15T16:31:34.303Z,98653.63
2022-09-15T16:34:00.996Z,98643.22
2022-09-15T16:36:27.645Z,98651.91
2022-09-15T16:38:54.241Z,98653.59
2022-09-15T16:41:26.016Z,98653.66
2022-09-15T16:43:56.219Z,98657.97
2022-09-15T16:46:22.739Z,98651.00
2022-09-15T16:48:49.362Z,98653.63
2022-09-15T16:51:28.789Z,98662.31
2022-09-15T16:53:57.212Z,98656.22
2022-09-15T16:56:23.795Z,98653.63
2022-09-15T16:58:54.781Z,98656.22
2022-09-15T17:01:25.273Z,98657.97
2022-09-15T17:03:51.771Z,98663.19
2022-09-15T17:06:18.704Z,98667.53
2022-09-15T17:08:47.522Z,98667.53
2022-09-15T17:11:16.885Z,98667.50
2022-09-15T17:13:44.083Z,98668.38
2022-09-15T17:16:11.641Z,98666.66
2022-09-15T17:18:38.222Z,98667.53
2022-09-15T17:21:04.781Z,98672.75
2022-09-15T17:23:35.371Z,98664.91
2022-09-15T17:26:04.176Z,98671.84
2022-09-15T17:28:33.026Z,98670.13
2022-09-15T17:31:16.658Z,98664.91
2022-09-15T17:33:43.712Z,98664.91
2022-09-15T17:36:10.901Z,98660.53
2022-09-15T17:38:37.449Z,98664.88
2022-09-15T17:41:04.080Z,98659.66
2022-09-15T17:43:31.737Z,98658.78
2022-09-15T17:46:01.522Z,98663.97
2022-09-15T17:48:29.347Z,98664.00
2022-09-15T17:50:55.833Z,98661.38
2022-09-15T17:53:26.566Z,98660.50
2022-09-15T17:55:54.683Z,98664.81
2022-09-15T17:58:22.113Z,98661.38
2022-09-15T18:00:49.364Z,98667.44
2022-09-15T18:03:45.441Z,98680.50
2022-09-15T18:06:12.046Z,98675.25
2022-09-15T18:08:38.585Z,98671.72
2022-09-15T18:11:05.918Z,98677.75
2022-09-15T18:13:35.762Z,98673.41
2022-09-15T18:16:12.207Z,98685.56
2022-09-15T18:18:40.446Z,98683.84
2022-09-15T18:21:14.723Z,98694.25
2022-09-15T18:23:42.404Z,98699.47
2022-09-15T18:26:08.900Z,98694.28
2022-09-15T18:28:35.359Z,98702.91
2022-09-15T18:31:01.997Z,98697.72
2022-09-15T18:33:28.535Z,98704.59
2022-09-15T18:35:56.658Z,98703.75
2022-09-15T18:38:25.912Z,98715.03
2022-09-15T18:40:55.832Z,98716.72
2022-09-15T18:43:25.135Z,98720.09
2022-09-15T18:45:53.211Z,98713.22
2022-09-15T18:48:19.813Z,98713.19
2022-09-15T18:50:47.834Z,98714.94
2022-09-15T18:53:14.399Z,98716.63
2022-09-15T18:55:42.006Z,98721.84
2022-09-15T18:58:08.837Z,98724.50
2022-09-15T19:00:41.624Z,98728.72
2022-09-15T19:03:09.605Z,98720.06
2022-09-15T19:05:36.457Z,98727.03
2022-09-15T19:08:03.606Z,98722.69
2022-09-15T19:10:30.333Z,98733.06
2022-09-15T19:12:56.779Z,98732.16
2022-09-15T19:15:24.349Z,98739.16
2022-09-15T19:17:51.316Z,98747.72
2022-09-15T19:20:18.041Z,98740.75
2022-09-15T19:22:44.609Z,98740.78
2022-09-15T19:25:12.197Z,98739.00
2022-09-15T19:27:39.543Z,98749.38
2022-09-15T19:30:08.117Z,98745.06
2022-09-15T19:32:34.651Z,98747.63
2022-09-15T19:35:01.187Z,98748.50
2022-09-15T19:37:27.732Z,98747.59
2022-09-15T19:39:55.034Z,98742.31
2022-09-15T19:42:21.762Z,98738.06
2022-09-15T19:44:49.452Z,98737.09
2022-09-15T19:47:16.268Z,98748.47
2022-09-15T19:49:42.879Z,98751.06
2022-09-15T19:52:09.426Z,98754.44
2022-09-15T19:54:36.343Z,98749.25
2022-09-15T19:57:05.084Z,98753.56
2022-09-15T19:59:32.110Z,98761.28
2022-09-15T20:02:00.791Z,98755.97
2022-09-15T20:04:28.511Z,98762.06
2022-09-15T20:06:55.655Z,98768.16
2022-09-15T20:09:22.600Z,98765.47
2022-09-15T20:11:49.218Z,98764.66
2022-09-15T20:14:16.015Z,98769.75
2022-09-15T20:16:42.671Z,98772.41
2022-09-15T20:19:09.263Z,98766.25
2022-09-15T20:21:50.005Z,98765.41
2022-09-15T20:24:18.538Z,98768.03
2022-09-15T20:26:45.075Z,98752.31
2022-09-15T20:29:14.488Z,98754.16
2022-09-15T20:31:41.175Z,98764.56
2022-09-15T20:34:07.658Z,98755.94
2022-09-15T20:36:36.437Z,98755.94
2022-09-15T20:39:05.108Z,98755.94
2022-09-15T20:41:31.971Z,98772.41
2022-09-15T20:43:59.151Z,98761.97
2022-09-15T20:46:26.272Z,98767.16
2022-09-15T20:48:55.976Z,98765.22
2022-09-15T20:51:29.508Z,98766.03
2022-09-15T20:53:57.568Z,98781.41
2022-09-15T20:56:26.152Z,98770.31
2022-09-15T20:58:54.222Z,98776.25
2022-09-15T21:01:26.094Z,98777.97
2022-09-15T21:03:53.435Z,98782.19
2022-09-15T21:06:22.827Z,98787.34
2022-09-15T21:08:50.024Z,98785.50
2022-09-15T21:11:19.299Z,98780.47
2022-09-15T21:13:47.149Z,98788.25
2022-09-15T21:16:15.835Z,98784.44
2022-09-15T21:18:43.457Z,98779.91
2022-09-15T21:21:19.170Z,98785.91
2022-09-15T21:23:52.380Z,98781.38
2022-09-15T21:26:26.823Z,98782.34
2022-09-15T21:28:56.433Z,98789.16
2022-09-15T21:31:26.178Z,98790.72
2022-09-15T21:33:53.842Z,98802.28
2022-09-15T21:36:23.157Z,98801.28
2022-09-15T21:38:51.133Z,98798.09
2022-09-15T21:41:20.855Z,98805.00
2022-09-15T21:43:48.355Z,98806.88
2022-09-15T21:46:17.255Z,98810.72
2022-09-15T21:48:46.847Z,98813.41
2022-09-15T21:51:15.059Z,98811.41
2022-09-15T21:53:43.040Z,98820.63
2022-09-15T21:56:11.913Z,98817.03
2022-09-15T21:58:42.835Z,98824.75
2022-09-15T22:01:19.337Z,98823.72
2022-09-15T22:03:51.553Z,98816.69
2022-09-15T22:06:19.757Z,98815.34
2022-09-15T22:08:46.743Z,98810.06
2022-09-15T22:11:13.817Z,98816.38
2022-09-15T22:13:43.070Z,98812.84
2022-09-15T22:16:15.540Z,98819.94
2022-09-15T22:18:42.778Z,98823.09
2022-09-15T22:21:23.383Z,98821.00
2022-09-15T22:23:51.023Z,98819.03
2022-09-15T22:26:20.467Z,98825.97
2022-09-15T22:28:47.139Z,98831.84
2022-09-15T22:31:14.808Z,98832.81
2022-09-15T22:33:42.325Z,98832.66
2022-09-15T22:36:22.996Z,98833.44
2022-09-15T22:38:52.112Z,98830.72
2022-09-15T22:41:20.179Z,98829.19
2022-09-15T22:43:48.251Z,98830.19
2022-09-15T22:46:18.761Z,98831.84
2022-09-15T22:48:45.633Z,98831.69
2022-09-15T22:51:12.809Z,98830.25
2022-09-15T22:53:39.453Z,98828.59
2022-09-15T22:56:19.682Z,98827.78
2022-09-15T22:58:47.680Z,98821.47
2022-09-15T23:01:25.088Z,98829.59
2022-09-15T23:04:01.730Z,98831.31
2022-09-15T23:06:31.123Z,98830.34
2022-09-15T23:08:59.374Z,98829.69
2022-09-15T23:11:28.210Z,98820.22
2022-09-15T23:13:55.669Z,98812.88
2022-09-15T23:16:23.287Z,98802.81
2022-09-15T23:18:53.338Z,98820.53
2022-09-15T23:21:22.427Z,98824.50
2022-09-15T23:23:49.312Z,98822.00
2022-09-15T23:26:18.041Z,98826.13
2022-09-15T23:28:44.925Z,98826.88
2022-09-15T23:31:12.922Z,98828.03
2022-09-15T23:33:41.201Z,98820.59
2022-09-15T23:36:11.324Z,98817.44
2022-09-15T23:38:39.364Z,98826.91
2022-09-15T23:41:06.822Z,98811.94
2022-09-15T23:43:34.053Z,98806.16
2022-09-15T23:46:01.175Z,98798.75
2022-09-15T23:48:27.970Z,98811.38
2022-09-15T23:50:54.771Z,98821.72
2022-09-15T23:53:21.374Z,98820.56
2022-09-15T23:55:47.870Z,98815.56
2022-09-15T23:58:14.694Z,98812.34
